Time;durP1;ratioP1;P1;durP2;ratioP2;P2;SDS_P1;SDS_P2;PMS_P1;PMS_P2;Temp;Humidity;BMP_temperature;BMP_pressure;BME280_temperature;BME280_humidity;BME280_pressure;Samples;Min_cycle;Max_cycle;Signal;HPM_P1;HPM_P2
2022/12/20 00:00:55;;;;;;;4.32;2.70;;;20.30;60.20;;;;;;5007956;27;87428;-83
2022/12/20 00:03:21;;;;;;;5.20;2.35;;;20.30;60.20;;;;;;5007875;27;87966;-83
2022/12/20 00:05:47;;;;;;;3.65;2.20;;;20.20;60.20;;;;;;5008041;27;87978;-83
2022/12/20 00:08:13;;;;;;;5.85;2.83;;;20.20;60.10;;;;;;5007974;27;87425;-84
2022/12/20 00:10:41;;;;;;;3.22;2.10;;;20.20;60.10;;;;;;5008755;28;87832;-84
2022/12/20 00:13:08;;;;;;;3.78;2.30;;;20.20;60.20;;;;;;5007351;27;89169;-83
2022/12/20 00:15:33;;;;;;;4.65;2.40;;;20.20;60.10;;;;;;5007699;27;87564;-83
2022/12/20 00:17:59;;;;;;;3.75;2.35;;;20.20;60.10;;;;;;5007763;27;87270;-83
2022/12/20 00:20:26;;;;;;;4.57;2.20;;;20.20;60.20;;;;;;5006457;28;95872;-82
2022/12/20 00:22:51;;;;;;;3.95;2.47;;;20.20;61.00;;;;;;5008072;28;87987;-82
2022/12/20 00:25:19;;;;;;;3.67;2.22;;;20.10;60.20;;;;;;5007618;27;88192;-82
2022/12/20 00:27:44;;;;;;;5.97;2.22;;;20.10;60.20;;;;;;5008122;27;87513;-83
2022/12/20 00:30:10;;;;;;;6.28;2.40;;;20.10;60.20;;;;;;5008425;27;88204;-84
2022/12/20 00:32:36;;;;;;;3.75;2.35;;;20.10;60.20;;;;;;5014828;27;90071;-84
2022/12/20 00:35:02;;;;;;;5.10;2.25;;;20.10;60.20;;;;;;5008187;28;87673;-83
2022/12/20 00:37:28;;;;;;;3.25;2.58;;;20.10;60.40;;;;;;5007716;27;87521;-83
2022/12/20 00:39:53;;;;;;;3.80;2.45;;;20.10;60.00;;;;;;5007649;27;87566;-84
2022/12/20 00:42:19;;;;;;;3.45;1.90;;;20.00;60.20;;;;;;5007822;27;88575;-84
2022/12/20 00:44:44;;;;;;;3.95;2.28;;;20.00;60.20;;;;;;5007549;27;87559;-83
2022/12/20 00:47:10;;;;;;;4.47;2.60;;;20.00;60.30;;;;;;5006968;27;88544;-82
2022/12/20 00:49:36;;;;;;;3.80;2.00;;;20.00;60.30;;;;;;5007987;28;87637;-83
2022/12/20 00:52:01;;;;;;;3.35;2.50;;;20.00;60.40;;;;;;4998358;27;90111;-82
2022/12/20 00:54:27;;;;;;;4.10;2.33;;;20.00;60.20;;;;;;5007302;27;88071;-83
2022/12/20 00:56:52;;;;;;;4.18;2.40;;;20.00;60.20;;;;;;5007942;27;87940;-83
2022/12/20 00:59:19;;;;;;;4.47;2.50;;;19.90;60.20;;;;;;5007137;27;87200;-85
2022/12/20 01:01:46;;;;;;;3.28;2.20;;;20.00;60.20;;;;;;5007721;28;88659;-84
2022/12/20 01:04:12;;;;;;;4.20;2.33;;;19.90;60.60;;;;;;5007608;27;87748;-83
2022/12/20 01:06:38;;;;;;;3.90;2.53;;;19.90;61.00;;;;;;5007530;27;86946;-83
2022/12/20 01:09:04;;;;;;;3.08;2.17;;;19.90;60.20;;;;;;5006543;27;86917;-83
2022/12/20 01:11:34;;;;;;;3.95;2.35;;;19.90;60.20;;;;;;5006537;27;90377;-83
2022/12/20 01:14:03;;;;;;;3.45;2.20;;;19.90;60.10;;;;;;5008440;28;89051;-84
2022/12/20 01:16:39;;;;;;;3.70;2.40;;;19.90;60.20;;;;;;5006722;27;87380;-85
2022/12/20 01:19:07;;;;;;;2.72;2.03;;;19.90;60.20;;;;;;5006012;27;87493;-84
2022/12/20 01:21:33;;;;;;;3.83;2.00;;;19.90;60.20;;;;;;5006935;27;88439;-81
2022/12/20 01:23:59;;;;;;;3.60;2.15;;;19.90;60.40;;;;;;5006145;27;87267;-82
2022/12/20 01:26:27;;;;;;;3.47;2.25;;;19.80;59.90;;;;;;5006513;27;87456;-83
2022/12/20 01:28:55;;;;;;;2.55;1.98;;;19.80;60.00;;;;;;5007787;28;86890;-83
2022/12/20 01:31:21;;;;;;;4.10;2.35;;;19.80;60.00;;;;;;5006917;27;88688;-83
2022/12/20 01:33:49;;;;;;;3.53;2.15;;;19.80;60.00;;;;;;5006923;27;87787;-83
2022/12/20 01:36:17;;;;;;;3.33;1.83;;;19.80;60.20;;;;;;5004829;27;88261;-84
2022/12/20 01:38:43;;;;;;;2.10;1.73;;;19.80;60.20;;;;;;5006202;27;87462;-82
2022/12/20 01:41:18;;;;;;;3.22;2.10;;;19.80;60.10;;;;;;5006278;27;87354;-83
2022/12/20 01:43:49;;;;;;;5.00;2.30;;;19.80;60.00;;;;;;5006894;28;87160;-83
2022/12/20 01:46:16;;;;;;;3.85;2.13;;;19.80;60.00;;;;;;5006468;27;87558;-82
2022/12/20 01:48:45;;;;;;;3.60;2.03;;;19.80;60.10;;;;;;5006858;27;87078;-83
2022/12/20 01:51:11;;;;;;;4.32;2.50;;;19.70;59.90;;;;;;5005899;27;88336;-84
2022/12/20 01:53:37;;;;;;;2.80;1.67;;;19.70;59.90;;;;;;5007102;27;87772;-84
2022/12/20 01:56:05;;;;;;;2.92;1.77;;;19.70;59.90;;;;;;5007825;28;87561;-83
2022/12/20 01:58:32;;;;;;;3.00;2.00;;;19.70;59.90;;;;;;5006273;28;91471;-83
2022/12/20 02:00:58;;;;;;;2.85;2.00;;;19.70;60.00;;;;;;5006414;27;89707;-82
2022/12/20 02:03:24;;;;;;;3.65;2.08;;;19.70;60.00;;;;;;5006826;27;89031;-82
2022/12/20 02:05:49;;;;;;;3.42;2.08;;;19.70;59.90;;;;;;5006691;27;87343;-83
2022/12/20 02:08:18;;;;;;;3.13;1.95;;;19.70;59.90;;;;;;5006069;27;87196;-85
2022/12/20 02:10:56;;;;;;;3.90;2.25;;;19.70;60.00;;;;;;5007689;28;88830;-83
2022/12/20 02:13:44;;;;;;;3.38;2.20;;;19.70;59.90;;;;;;5006724;27;87506;-83
2022/12/20 02:16:18;;;;;;;3.05;2.00;;;19.70;59.70;;;;;;5006597;27;87046;-82
2022/12/20 02:19:08;;;;;;;4.03;2.17;;;19.70;59.80;;;;;;5006386;27;87381;-83
2022/12/20 02:21:41;;;;;;;3.20;1.65;;;19.70;59.80;;;;;;5006088;27;88147;-84
2022/12/20 02:24:41;;;;;;;2.22;1.70;;;19.60;60.20;;;;;;5006454;27;88234;-83
2022/12/20 02:27:21;;;;;;;3.75;2.10;;;19.60;59.80;;;;;;5005703;27;88580;-82
2022/12/20 02:29:59;;;;;;;3.28;2.05;;;19.60;60.00;;;;;;5005965;27;87370;-82
2022/12/20 02:32:30;;;;;;;3.30;1.65;;;19.60;59.80;;;;;;5006078;27;88059;-83
2022/12/20 02:34:56;;;;;;;3.22;2.15;;;19.60;59.90;;;;;;5006698;28;89186;-84
2022/12/20 02:37:22;;;;;;;2.65;1.80;;;19.60;59.90;;;;;;5006114;27;87380;-82
2022/12/20 02:39:48;;;;;;;3.28;2.30;;;19.60;60.00;;;;;;5006238;27;87319;-84
2022/12/20 02:42:18;;;;;;;3.03;1.75;;;19.60;59.90;;;;;;5005832;27;88046;-82
2022/12/20 02:47:52;;;;;;;2.78;2.10;;;19.60;60.00;;;;;;5008827;27;87286;-84
2022/12/20 02:50:27;;;;;;;2.83;1.60;;;19.50;59.80;;;;;;5009267;27;87479;-84
2022/12/20 02:52:53;;;;;;;2.47;1.70;;;19.60;60.10;;;;;;5009151;28;89193;-83
2022/12/20 02:55:22;;;;;;;2.97;1.67;;;19.50;59.90;;;;;;5009279;27;89267;-82
2022/12/20 02:57:51;;;;;;;;;;;19.50;59.80;;;;;;5009954;27;87475;-82
2022/12/20 03:00:20;;;;;;;3.42;1.67;;;19.50;59.80;;;;;;5011435;27;86937;-83
2022/12/20 03:05:34;;;;;;;3.72;2.03;;;19.50;59.80;;;;;;5008784;27;89229;-84
2022/12/20 03:08:00;;;;;;;2.63;1.75;;;19.50;59.80;;;;;;5010127;28;87256;-81
2022/12/20 03:10:26;;;;;;;2.28;1.65;;;19.50;59.90;;;;;;5009355;27;87810;-82
2022/12/20 03:12:52;;;;;;;2.95;1.70;;;19.50;59.80;;;;;;5008837;27;87730;-83
2022/12/20 03:15:18;;;;;;;2.75;1.83;;;19.50;60.10;;;;;;5008317;27;87824;-84
2022/12/20 03:17:43;;;;;;;3.08;1.98;;;19.50;60.00;;;;;;5008774;27;88508;-84
2022/12/20 03:20:10;;;;;;;2.63;1.90;;;19.50;60.00;;;;;;5008333;27;87961;-84
2022/12/20 03:22:36;;;;;;;3.83;2.00;;;19.40;60.00;;;;;;5008891;28;88702;-83
2022/12/20 03:25:01;;;;;;;2.03;1.50;;;19.50;60.10;;;;;;5009141;27;88100;-83
2022/12/20 03:27:27;;;;;;;2.22;1.75;;;19.40;60.00;;;;;;5008812;27;86929;-84
2022/12/20 03:29:54;;;;;;;2.95;1.90;;;19.40;60.00;;;;;;5008584;27;87401;-83
2022/12/20 03:32:20;;;;;;;2.53;1.75;;;19.40;60.00;;;;;;5008413;27;88595;-83
2022/12/20 03:34:46;;;;;;;2.55;1.80;;;19.40;59.90;;;;;;5009874;28;86579;-82
2022/12/20 03:37:11;;;;;;;5.63;2.10;;;19.40;60.00;;;;;;5009503;27;88067;-84
2022/12/20 03:39:37;;;;;;;3.22;2.05;;;19.40;59.90;;;;;;5008187;27;86946;-82
2022/12/20 03:42:03;;;;;;;3.95;2.40;;;19.40;60.00;;;;;;5008311;27;89279;-84
2022/12/20 03:44:28;;;;;;;3.10;1.52;;;19.40;60.10;;;;;;5008506;27;88781;-83
2022/12/20 03:46:54;;;;;;;3.42;1.90;;;19.40;59.90;;;;;;5008829;28;87101;-85
2022/12/20 03:49:19;;;;;;;2.58;1.73;;;19.40;59.90;;;;;;5009370;27;87121;-84
2022/12/20 03:51:45;;;;;;;2.80;1.55;;;19.40;60.00;;;;;;5007723;27;88332;-84
2022/12/20 03:54:11;;;;;;;3.30;2.08;;;19.40;59.90;;;;;;5008389;27;87816;-82
2022/12/20 03:56:36;;;;;;;1.80;1.48;;;19.40;60.10;;;;;;5007894;27;87915;-82
2022/12/20 03:59:02;;;;;;;2.28;1.58;;;19.40;60.00;;;;;;5009604;28;88054;-83
2022/12/20 04:01:28;;;;;;;2.50;1.60;;;19.30;60.00;;;;;;5008112;27;87428;-83
2022/12/20 04:03:55;;;;;;;2.70;1.80;;;19.30;59.90;;;;;;5008398;27;88241;-82
2022/12/20 04:06:22;;;;;;;2.85;1.95;;;19.30;60.10;;;;;;5008715;27;88265;-84
2022/12/20 04:08:48;;;;;;;2.42;1.83;;;19.30;60.00;;;;;;5008014;27;87336;-81
2022/12/20 04:11:18;;;;;;;2.13;1.42;;;19.30;60.00;;;;;;5007228;27;88499;-83
2022/12/20 04:13:44;;;;;;;3.03;1.88;;;19.30;60.10;;;;;;5008489;28;87427;-83
2022/12/20 04:16:11;;;;;;;2.53;1.83;;;19.30;60.10;;;;;;4997157;28;86975;-83
2022/12/20 04:18:37;;;;;;;3.40;1.70;;;19.30;60.00;;;;;;5007186;27;87326;-84
2022/12/20 04:21:03;;;;;;;2.75;1.90;;;19.30;60.10;;;;;;5007159;27;87557;-81
2022/12/20 04:23:29;;;;;;;1.85;1.40;;;19.30;60.00;;;;;;5007289;27;87295;-84
2022/12/20 04:25:54;;;;;;;2.42;1.58;;;19.30;60.10;;;;;;5006268;28;87468;-83
2022/12/20 04:28:20;;;;;;;2.67;1.75;;;19.30;60.00;;;;;;5007434;27;86983;-82
2022/12/20 04:30:45;;;;;;;2.30;1.90;;;19.30;59.90;;;;;;5007179;27;88477;-81
2022/12/20 04:33:11;;;;;;;3.15;1.70;;;19.30;60.00;;;;;;5007359;27;88716;-84
2022/12/20 04:35:37;;;;;;;2.58;1.88;;;19.30;60.00;;;;;;5007932;27;87373;-82
2022/12/20 04:38:03;;;;;;;2.80;1.90;;;19.20;60.00;;;;;;5008449;28;87337;-84
2022/12/20 04:40:28;;;;;;;2.40;1.75;;;19.30;60.00;;;;;;5007840;27;88567;-83
2022/12/20 04:42:54;;;;;;;2.67;1.67;;;19.20;59.90;;;;;;4997588;28;90324;-84
2022/12/20 04:45:20;;;;;;;2.10;1.55;;;19.20;59.80;;;;;;5007658;27;87125;-84
2022/12/20 04:47:45;;;;;;;2.00;1.50;;;19.20;59.90;;;;;;5007427;27;87410;-84
2022/12/20 04:50:11;;;;;;;3.00;1.50;;;19.20;60.00;;;;;;5007564;27;88525;-82
2022/12/20 04:55:21;;;;;;;2.88;1.58;;;19.20;60.00;;;;;;5006574;27;88526;-83
2022/12/20 04:57:47;;;;;;;2.40;1.58;;;19.20;59.90;;;;;;5007849;27;87114;-83
2022/12/20 05:00:14;;;;;;;2.17;1.48;;;19.20;59.90;;;;;;5007435;27;88346;-84
2022/12/20 05:02:40;;;;;;;3.00;1.90;;;19.20;59.80;;;;;;5007260;27;87826;-82
2022/12/20 05:05:06;;;;;;;1.80;1.40;;;19.20;59.90;;;;;;5008218;28;87057;-81
2022/12/20 05:07:32;;;;;;;2.58;1.73;;;19.20;59.90;;;;;;5006374;28;94010;-83
2022/12/20 05:09:57;;;;;;;2.38;1.67;;;19.20;59.80;;;;;;5007080;27;88708;-82
2022/12/20 05:12:23;;;;;;;2.13;1.48;;;19.20;60.70;;;;;;5007954;27;87821;-84
2022/12/20 05:14:48;;;;;;;2.22;1.45;;;19.20;59.90;;;;;;5007790;27;87427;-81
2022/12/20 05:17:14;;;;;;;3.72;1.80;;;19.10;59.70;;;;;;5007182;27;87700;-83
2022/12/20 05:19:40;;;;;;;3.55;1.77;;;19.20;59.70;;;;;;5006855;28;89079;-83
2022/12/20 05:27:36;;;;;;;2.03;1.23;;;19.20;59.80;;;;;;5006660;27;87512;-81
2022/12/20 05:30:03;;;;;;;2.60;1.45;;;19.10;59.80;;;;;;5006793;27;88083;-87
2022/12/20 05:32:29;;;;;;;1.73;1.30;;;19.10;59.90;;;;;;5006391;27;88142;-86
2022/12/20 05:34:54;;;;;;;1.98;1.40;;;19.10;59.80;;;;;;5007326;28;87868;-86
2022/12/20 05:37:20;;;;;;;1.23;1.08;;;19.10;59.70;;;;;;5006915;27;86679;-87
2022/12/20 05:39:46;;;;;;;2.40;1.55;;;19.10;59.60;;;;;;5005907;27;87681;-83
2022/12/20 05:42:11;;;;;;;1.52;1.30;;;19.10;59.70;;;;;;5006446;27;88036;-82
2022/12/20 05:44:37;;;;;;;2.35;1.65;;;19.10;59.60;;;;;;5006432;27;88476;-84
2022/12/20 05:47:02;;;;;;;2.00;1.50;;;19.10;59.60;;;;;;5006863;28;87183;-82
2022/12/20 05:49:28;;;;;;;2.47;1.52;;;19.10;59.60;;;;;;5006210;27;88618;-83
2022/12/20 05:51:54;;;;;;;1.40;1.20;;;19.10;59.70;;;;;;5006303;27;87220;-83
2022/12/20 05:54:20;;;;;;;1.85;1.10;;;19.10;59.80;;;;;;5006075;27;87226;-85
2022/12/20 05:56:45;;;;;;;1.88;1.30;;;19.20;59.90;;;;;;5007200;27;87608;-86
2022/12/20 05:59:11;;;;;;;2.25;1.38;;;19.30;59.40;;;;;;5006081;27;87939;-85
2022/12/20 06:01:37;;;;;;;2.10;1.80;;;19.40;59.30;;;;;;5007714;28;88044;-85
2022/12/20 06:04:02;;;;;;;2.03;1.40;;;19.50;58.70;;;;;;5006396;27;87221;-86
2022/12/20 06:06:28;;;;;;;4.90;1.50;;;19.60;58.80;;;;;;5004654;27;87605;-87
2022/12/20 06:08:55;;;;;;;1.88;1.25;;;19.80;58.70;;;;;;5005462;27;88504;-85
2022/12/20 06:11:20;;;;;;;2.15;1.10;;;19.90;58.30;;;;;;5005241;27;89620;-84
2022/12/20 06:13:46;;;;;;;2.50;1.50;;;20.10;58.10;;;;;;5006287;28;87079;-85
2022/12/20 06:16:11;;;;;;;2.70;1.58;;;20.20;58.00;;;;;;5005763;27;87190;-84
2022/12/20 06:18:37;;;;;;;2.20;1.42;;;20.40;57.70;;;;;;5006219;27;88434;-85
2022/12/20 06:21:03;;;;;;;2.53;1.40;;;20.60;57.50;;;;;;5009521;27;87895;-84
2022/12/20 06:23:28;;;;;;;1.83;1.40;;;20.70;57.30;;;;;;5009083;27;87924;-84
2022/12/20 06:25:54;;;;;;;2.38;1.33;;;20.80;57.10;;;;;;5010396;28;86915;-85
2022/12/20 06:28:22;;;;;;;1.52;1.20;;;20.80;57.10;;;;;;5008896;27;87591;-86
2022/12/20 06:30:56;;;;;;;1.63;1.25;;;20.90;56.80;;;;;;5008641;27;87879;-83
2022/12/20 06:33:22;;;;;;;1.52;1.42;;;20.90;56.70;;;;;;5007594;27;88039;-85
2022/12/20 06:35:52;;;;;;;2.38;1.30;;;20.90;56.70;;;;;;5008495;27;87519;-85
2022/12/20 06:38:17;;;;;;;2.13;1.58;;;21.00;56.70;;;;;;5008087;27;87391;-83
2022/12/20 06:40:43;;;;;;;3.58;1.38;;;20.90;56.70;;;;;;5009745;28;87709;-83
2022/12/20 06:43:09;;;;;;;1.90;1.15;;;21.00;56.60;;;;;;5008475;27;87031;-84
2022/12/20 06:45:34;;;;;;;1.83;1.40;;;21.00;56.70;;;;;;5007775;27;87521;-84
2022/12/20 06:48:00;;;;;;;2.05;1.40;;;20.90;56.80;;;;;;5008345;27;88342;-86
2022/12/20 06:50:26;;;;;;;1.48;1.23;;;20.90;56.70;;;;;;5008838;27;88189;-83
2022/12/20 06:52:52;;;;;;;1.30;1.10;;;20.80;56.60;;;;;;5009488;28;87619;-83
2022/12/20 06:55:18;;;;;;;1.67;1.30;;;20.80;56.80;;;;;;5008789;27;87198;-84
2022/12/20 06:57:43;;;;;;;1.92;1.17;;;20.80;56.70;;;;;;5008535;27;89596;-83
2022/12/20 07:00:11;;;;;;;2.13;1.20;;;20.80;56.70;;;;;;5007689;27;88650;-85
2022/12/20 07:02:37;;;;;;;4.32;1.60;;;20.70;56.90;;;;;;5008972;27;87864;-83
2022/12/20 07:05:03;;;;;;;6.65;1.48;;;20.70;56.80;;;;;;5009252;28;87492;-84
2022/12/20 07:07:29;;;;;;;2.53;1.35;;;20.80;56.90;;;;;;5007268;27;87867;-83
2022/12/20 07:09:54;;;;;;;2.90;1.27;;;20.70;56.90;;;;;;5007864;27;87535;-81
2022/12/20 07:12:20;;;;;;;2.80;1.42;;;20.70;57.10;;;;;;5007183;27;87518;-85
2022/12/20 07:14:46;;;;;;;4.10;1.35;;;20.60;57.20;;;;;;5006109;27;87014;-84
2022/12/20 07:17:12;;;;;;;3.83;1.42;;;20.70;56.90;;;;;;5017798;27;87408;-83
2022/12/20 07:19:37;;;;;;;4.50;1.35;;;20.70;57.10;;;;;;5007945;28;90092;-85
2022/12/20 07:22:04;;;;;;;1.98;1.30;;;20.70;57.00;;;;;;5007459;27;87968;-83
2022/12/20 07:24:30;;;;;;;4.93;1.38;;;20.70;57.30;;;;;;5008049;27;87112;-82
2022/12/20 07:26:57;;;;;;;11.57;2.80;;;20.80;57.00;;;;;;5007340;27;87297;-85
2022/12/20 07:29:23;;;;;;;3.78;1.15;;;20.80;56.50;;;;;;5008603;27;87921;-83
2022/12/20 07:31:48;;;;;;;4.40;1.40;;;20.80;57.00;;;;;;5009868;28;87480;-88
2022/12/20 07:34:14;;;;;;;5.40;1.52;;;20.70;57.20;;;;;;5009304;27;86986;-85
2022/12/20 07:36:39;;;;;;;2.97;1.63;;;20.60;57.50;;;;;;5008574;27;89137;-88
2022/12/20 07:39:05;;;;;;;5.45;1.42;;;20.50;58.10;;;;;;5008213;27;87336;-86
2022/12/20 07:41:31;;;;;;;6.18;1.30;;;20.40;58.10;;;;;;5008770;27;87420;-87
2022/12/20 07:43:58;;;;;;;3.00;1.38;;;20.30;58.30;;;;;;5009701;28;87242;-85
2022/12/20 07:46:23;;;;;;;4.07;1.30;;;20.30;58.40;;;;;;5008533;27;88436;-86
2022/12/20 07:48:49;;;;;;;3.60;1.65;;;20.30;58.60;;;;;;5008124;27;88852;-86
2022/12/20 07:51:20;;;;;;;3.13;1.73;;;20.30;58.60;;;;;;5009212;27;87287;-86
2022/12/20 07:54:02;;;;;;;2.78;1.38;;;20.30;58.60;;;;;;5007832;27;87513;-85
2022/12/20 07:56:30;;;;;;;2.30;1.63;;;20.30;58.60;;;;;;5007711;27;88477;-85
2022/12/20 07:58:59;;;;;;;5.03;1.88;;;20.40;58.80;;;;;;5006458;28;87071;-86
2022/12/20 08:01:28;;;;;;;5.23;1.63;;;20.40;58.50;;;;;;5007211;27;88349;-83
2022/12/20 08:04:04;;;;;;;3.67;1.67;;;20.40;58.60;;;;;;4997979;28;88816;-83
2022/12/20 08:06:30;;;;;;;5.45;1.73;;;20.40;58.70;;;;;;5007511;27;88016;-84
2022/12/20 08:08:59;;;;;;;7.63;2.13;;;20.40;58.70;;;;;;5006784;27;87828;-86
2022/12/20 08:11:29;;;;;;;9.93;2.20;;;20.40;59.00;;;;;;5007146;27;88661;-86
2022/12/20 08:13:54;;;;;;;3.85;1.52;;;20.40;59.00;;;;;;5008250;28;87370;-87
2022/12/20 08:16:20;;;;;;;3.17;1.50;;;20.40;59.00;;;;;;5007014;27;88416;-85
2022/12/20 08:18:46;;;;;;;4.10;1.60;;;20.40;59.00;;;;;;5006327;27;87878;-86
2022/12/20 08:21:13;;;;;;;3.95;2.00;;;20.40;59.10;;;;;;5007239;27;87618;-87
2022/12/20 08:23:39;;;;;;;3.42;1.50;;;20.40;59.00;;;;;;5007427;27;87242;-86
2022/12/20 08:26:04;;;;;;;4.07;1.40;;;20.40;59.10;;;;;;5007782;28;87691;-87
2022/12/20 08:28:30;;;;;;;1.73;1.20;;;20.40;59.10;;;;;;5007243;27;88304;-85
2022/12/20 08:31:04;;;;;;;3.35;1.55;;;20.40;59.00;;;;;;5007095;27;87381;-86
2022/12/20 08:33:30;;;;;;;3.70;1.90;;;20.40;59.10;;;;;;5007124;27;87576;-87
2022/12/20 08:36:01;;;;;;;2.50;1.35;;;20.40;59.20;;;;;;4963721;27;88588;-87
2022/12/20 08:38:28;;;;;;;4.00;1.38;;;20.40;59.00;;;;;;5009269;27;89335;-86
2022/12/20 08:40:54;;;;;;;5.93;1.40;;;20.50;59.10;;;;;;5007279;28;87064;-86
2022/12/20 08:43:20;;;;;;;1.67;1.27;;;20.50;59.20;;;;;;5007144;27;87467;-86
2022/12/20 08:45:52;;;;;;;2.42;1.50;;;20.50;59.10;;;;;;5007639;27;88161;-89
2022/12/20 08:48:17;;;;;;;3.92;1.25;;;20.60;59.20;;;;;;5005919;27;88332;-87
2022/12/20 08:50:43;;;;;;;4.78;1.55;;;20.60;59.00;;;;;;5007286;27;86931;-84
2022/12/20 08:53:08;;;;;;;2.85;1.33;;;20.70;59.00;;;;;;5008099;27;86666;-85
2022/12/20 08:55:34;;;;;;;4.07;1.20;;;20.80;59.00;;;;;;5008207;28;87769;-85
2022/12/20 08:57:59;;;;;;;3.58;1.55;;;20.80;58.70;;;;;;5008008;27;87806;-85
2022/12/20 09:00:25;;;;;;;3.42;1.40;;;20.80;58.80;;;;;;5006395;27;88601;-86
2022/12/20 09:02:53;;;;;;;3.25;1.20;;;20.90;58.80;;;;;;5006970;27;87222;-82
2022/12/20 09:05:19;;;;;;;4.35;1.60;;;21.00;58.60;;;;;;5008307;27;87614;-86
2022/12/20 09:07:44;;;;;;;3.45;1.77;;;21.00;58.30;;;;;;5010024;28;88616;-88
2022/12/20 09:10:11;;;;;;;4.38;1.60;;;21.10;57.90;;;;;;5007134;28;87738;-87
2022/12/20 09:12:38;;;;;;;3.85;1.60;;;21.10;57.70;;;;;;5006852;27;88464;-83
2022/12/20 09:15:05;;;;;;;2.53;1.60;;;21.10;57.70;;;;;;5006526;27;88653;-85
2022/12/20 09:17:30;;;;;;;4.03;1.33;;;21.00;57.90;;;;;;5006884;27;87728;-83
2022/12/20 09:19:56;;;;;;;1.73;1.05;;;21.00;58.20;;;;;;5008028;28;87453;-84
2022/12/20 09:22:22;;;;;;;5.13;1.48;;;21.00;58.50;;;;;;5006575;27;86954;-82
2022/12/20 09:24:48;;;;;;;3.47;1.45;;;21.00;58.40;;;;;;5006063;27;89084;-86
2022/12/20 09:27:13;;;;;;;2.75;1.60;;;20.90;58.70;;;;;;5005713;27;89205;-84
2022/12/20 09:29:39;;;;;;;4.50;1.60;;;21.00;58.10;;;;;;5007123;27;87393;-85
2022/12/20 09:32:05;;;;;;;6.13;1.92;;;21.00;58.30;;;;;;5006791;28;87726;-84
2022/12/20 09:34:30;;;;;;;8.63;1.48;;;21.00;58.30;;;;;;5005570;27;88608;-84
2022/12/20 09:36:56;;;;;;;4.47;1.48;;;21.10;58.10;;;;;;5005644;27;88087;-86
2022/12/20 09:39:22;;;;;;;3.03;1.42;;;21.00;58.00;;;;;;4994117;27;87264;-84
2022/12/20 09:41:47;;;;;;;3.95;1.60;;;21.00;58.30;;;;;;5005995;27;87691;-86
2022/12/20 09:44:19;;;;;;;3.70;1.48;;;21.00;58.40;;;;;;5005656;27;88645;-88
2022/12/20 09:46:54;;;;;;;3.40;1.40;;;21.00;58.20;;;;;;5006250;28;88265;-86
2022/12/20 09:49:30;;;;;;;1.80;1.27;;;21.00;58.30;;;;;;5005706;27;88361;-86
2022/12/20 09:52:11;;;;;;;2.47;1.50;;;21.00;58.30;;;;;;5006569;27;87168;-85
2022/12/20 09:54:59;;;;;;;5.53;1.63;;;21.00;58.00;;;;;;5005844;28;93790;-87
2022/12/20 09:57:48;;;;;;;2.08;1.13;;;21.10;58.00;;;;;;5004067;27;87413;-87
2022/12/20 10:00:18;;;;;;;4.25;1.83;;;21.10;58.10;;;;;;5005154;27;88342;-86
2022/12/20 10:02:45;;;;;;;2.90;1.38;;;21.10;58.30;;;;;;5005572;27;87606;-86
2022/12/20 10:05:30;;;;;;;3.45;1.40;;;21.00;58.30;;;;;;5004182;27;89948;-86
2022/12/20 10:08:02;;;;;;;5.32;1.70;;;21.10;58.20;;;;;;5007663;28;88187;-87
2022/12/20 10:10:47;;;;;;;4.13;1.65;;;21.10;58.20;;;;;;5006609;27;87407;-83
2022/12/20 10:13:21;;;;;;;5.38;1.65;;;21.10;57.30;;;;;;5006389;27;88160;-85
2022/12/20 10:16:06;;;;;;;6.50;1.20;;;21.10;57.60;;;;;;5005262;27;89076;-86
2022/12/20 10:19:10;;;;;;;4.78;1.38;;;21.10;57.00;;;;;;5005613;27;88807;-85
2022/12/20 10:21:59;;;;;;;3.10;1.58;;;21.10;57.50;;;;;;4970776;28;87507;-82
2022/12/20 10:24:29;;;;;;;3.38;1.65;;;21.10;57.80;;;;;;4953069;28;87672;-86
2022/12/20 10:26:57;;;;;;;3.67;1.67;;;21.10;57.40;;;;;;4953212;28;88054;-83
2022/12/20 10:29:22;;;;;;;2.88;1.50;;;21.10;57.10;;;;;;4952711;28;88266;-83
2022/12/20 10:31:57;;;;;;;5.05;1.52;;;21.10;57.40;;;;;;4953763;28;87561;-85
2022/12/20 10:34:23;;;;;;;2.50;1.42;;;21.10;57.50;;;;;;4951707;28;88118;-83
2022/12/20 10:37:13;;;;;;;3.10;1.33;;;21.10;57.40;;;;;;4949598;28;88538;-82
2022/12/20 10:39:43;;;;;;;3.25;1.08;;;21.10;57.00;;;;;;4949910;28;87778;-82
2022/12/20 10:42:31;;;;;;;3.53;1.70;;;21.10;57.40;;;;;;4950098;28;88481;-83
2022/12/20 10:44:57;;;;;;;4.25;1.05;;;21.10;57.60;;;;;;4951888;28;87872;-83
2022/12/20 10:47:40;;;;;;;3.28;1.20;;;21.10;57.80;;;;;;4950904;28;88627;-84
2022/12/20 10:50:12;;;;;;;2.78;1.27;;;21.10;57.80;;;;;;4954514;28;87806;-83
2022/12/20 10:52:38;;;;;;;7.05;1.48;;;21.10;57.80;;;;;;4951048;28;87764;-83
2022/12/20 10:55:34;;;;;;;5.55;1.80;;;21.10;58.00;;;;;;4951837;28;87931;-84
2022/12/20 10:58:05;;;;;;;3.03;1.42;;;21.10;58.00;;;;;;4958551;28;87755;-84
2022/12/20 11:00:32;;;;;;;7.43;1.23;;;21.10;58.30;;;;;;4947541;28;88559;-83
2022/12/20 11:03:12;;;;;;;2.97;1.58;;;21.10;58.50;;;;;;4985226;27;87256;-83
2022/12/20 11:05:38;;;;;;;2.40;1.50;;;21.10;58.10;;;;;;4979729;28;90926;-82
2022/12/20 11:08:16;;;;;;;3.28;1.40;;;21.10;58.20;;;;;;4988528;28;89490;-82
2022/12/20 11:10:42;;;;;;;3.20;1.73;;;21.10;58.10;;;;;;5008620;28;93203;-84
2022/12/20 11:13:22;;;;;;;5.13;1.30;;;21.00;58.30;;;;;;5008935;27;87865;-82
2022/12/20 11:15:50;;;;;;;2.45;1.30;;;21.10;58.30;;;;;;5008745;27;88331;-84
2022/12/20 11:18:29;;;;;;;4.25;1.35;;;21.10;58.30;;;;;;5008033;27;88226;-86
2022/12/20 11:21:14;;;;;;;4.75;1.25;;;21.00;58.80;;;;;;5007067;27;87908;-84
2022/12/20 11:24:07;;;;;;;5.30;1.25;;;21.10;58.70;;;;;;5008519;27;87692;-84
2022/12/20 11:26:48;;;;;;;5.88;1.70;;;21.10;58.90;;;;;;5007927;27;87080;-83
2022/12/20 11:29:32;;;;;;;3.95;1.50;;;21.10;59.20;;;;;;5006841;27;87597;-82
2022/12/20 11:32:12;;;;;;;7.05;1.75;;;21.10;59.20;;;;;;5007408;28;88319;-84
2022/12/20 11:34:50;;;;;;;3.22;1.40;;;21.10;59.20;;;;;;5005830;28;88281;-82
2022/12/20 11:37:18;;;;;;;3.28;1.10;;;21.10;59.00;;;;;;5006675;27;87594;-82
2022/12/20 11:39:59;;;;;;;3.20;1.55;;;21.10;58.90;;;;;;5006320;27;87760;-82
2022/12/20 11:43:06;;;;;;;3.78;1.40;;;21.10;59.30;;;;;;5007508;27;88747;-82
2022/12/20 11:46:01;;;;;;;7.00;1.92;;;21.10;59.10;;;;;;4984554;28;87465;-82
2022/12/20 11:48:40;;;;;;;35.50;8.45;;;21.10;58.20;;;;;;4984993;28;87626;-80
2022/12/20 11:51:34;;;;;;;18.88;4.53;;;21.00;58.40;;;;;;4984074;28;87720;-81
2022/12/20 11:54:24;;;;;;;22.70;5.10;;;21.00;58.60;;;;;;4984888;28;87976;-82
2022/12/20 11:56:55;;;;;;;13.88;3.78;;;21.00;58.90;;;;;;4984800;28;87748;-82
2022/12/20 11:59:35;;;;;;;16.75;3.83;;;21.00;59.10;;;;;;4984477;28;87638;-82
2022/12/20 12:02:13;;;;;;;15.82;3.53;;;21.00;59.00;;;;;;4983301;28;89723;-81
2022/12/20 12:04:49;;;;;;;20.10;3.75;;;21.00;59.10;;;;;;4984750;28;93273;-83
2022/12/20 12:07:20;;;;;;;9.57;3.20;;;21.00;59.20;;;;;;4982555;28;87659;-82
2022/12/20 12:09:57;;;;;;;10.05;3.28;;;21.00;59.00;;;;;;4966691;28;90521;-81
2022/12/20 12:12:42;;;;;;;10.48;3.47;;;21.00;59.10;;;;;;4984269;28;87692;-82
2022/12/20 12:15:47;;;;;;;11.90;3.47;;;21.00;59.10;;;;;;4984181;28;88325;-82
2022/12/20 12:18:20;;;;;;;12.57;3.30;;;21.00;59.20;;;;;;4984604;28;86931;-84
2022/12/20 12:21:04;;;;;;;9.57;3.35;;;20.90;59.10;;;;;;4982986;28;86958;-82
2022/12/20 12:24:00;;;;;;;13.75;3.72;;;20.90;59.10;;;;;;5005585;27;88546;-83
2022/12/20 12:26:27;;;;;;;8.32;3.10;;;20.90;59.30;;;;;;5007224;27;88820;-83
2022/12/20 12:29:08;;;;;;;9.77;2.80;;;20.90;59.30;;;;;;5006994;28;88515;-82
2022/12/20 12:31:37;;;;;;;13.52;3.10;;;20.80;59.30;;;;;;5007046;28;92195;-82
2022/12/20 12:34:09;;;;;;;;;;;20.90;59.40;;;;;;5007693;27;87471;-82
2022/12/20 12:37:04;;;;;;;8.77;3.30;;;21.00;59.10;;;;;;5008739;27;88548;-82
2022/12/20 12:39:49;;;;;;;10.80;3.25;;;21.00;59.00;;;;;;5007371;27;86989;-83
2022/12/20 12:42:20;;;;;;;13.63;3.58;;;20.90;59.00;;;;;;5006880;27;87917;-84
2022/12/20 12:45:25;;;;;;;12.77;3.50;;;20.90;59.10;;;;;;5006685;27;88132;-81
2022/12/20 12:48:03;;;;;;;11.05;3.22;;;20.90;59.30;;;;;;5006812;27;88290;-82
2022/12/20 12:50:36;;;;;;;9.10;3.40;;;20.90;59.20;;;;;;5007025;27;86863;-82
2022/12/20 12:53:37;;;;;;;12.30;3.33;;;20.90;59.10;;;;;;5006746;28;87679;-81
2022/12/20 12:56:30;;;;;;;11.43;3.35;;;20.80;59.10;;;;;;4982309;28;94221;-83
2022/12/20 12:59:05;;;;;;;9.90;3.25;;;20.80;59.20;;;;;;4983554;28;87797;-82
2022/12/20 13:01:46;;;;;;;7.30;2.90;;;20.80;59.30;;;;;;4984602;28;88086;-82
2022/12/20 13:04:21;;;;;;;9.98;2.97;;;20.80;59.20;;;;;;4982914;28;87604;-83
2022/12/20 13:06:46;;;;;;;10.90;3.10;;;20.90;59.10;;;;;;4983340;28;87534;-81
2022/12/20 13:09:36;;;;;;;8.52;3.03;;;20.90;59.20;;;;;;4966564;28;89851;-82
2022/12/20 13:12:33;;;;;;;10.15;3.10;;;20.80;59.20;;;;;;4984151;28;87758;-83
2022/12/20 13:14:59;;;;;;;6.90;2.53;;;20.90;59.10;;;;;;4984138;28;88123;-83